createdAt,value
2023-04-06T00:01:54.869Z,6.61
2023-04-06T00:04:22.295Z,6.61
2023-04-06T00:06:49.790Z,6.59
2023-04-06T00:09:16.849Z,6.61
2023-04-06T00:11:44.072Z,6.62
2023-04-06T00:14:11.345Z,6.70
2023-04-06T00:16:38.672Z,6.82
2023-04-06T00:19:05.846Z,6.69
2023-04-06T00:21:33.460Z,6.70
2023-04-06T00:24:00.744Z,6.68
2023-04-06T00:26:28.193Z,6.64
2023-04-06T00:28:58.779Z,6.67
2023-04-06T00:31:26.586Z,6.81
2023-04-06T00:33:53.969Z,6.65
2023-04-06T00:36:21.431Z,6.75
2023-04-06T00:38:48.889Z,6.80
2023-04-06T00:41:16.346Z,6.84
2023-04-06T00:43:46.291Z,6.88
2023-04-06T00:46:13.673Z,6.86
2023-04-06T00:48:41.982Z,6.92
2023-04-06T00:51:09.098Z,6.82
2023-04-06T00:53:36.656Z,6.84
2023-04-06T00:56:05.173Z,6.90
2023-04-06T00:58:42.157Z,6.90
2023-04-06T01:01:10.308Z,6.98
2023-04-06T01:03:37.891Z,7.03
2023-04-06T01:06:05.963Z,7.12
2023-04-06T01:08:38.262Z,7.05
2023-04-06T01:11:19.444Z,7.15
2023-04-06T01:13:48.240Z,7.07
2023-04-06T01:16:24.509Z,7.15
2023-04-06T01:19:16.276Z,7.08
2023-04-06T01:21:47.454Z,7.04
2023-04-06T01:24:32.877Z,7.02
2023-04-06T01:27:07.066Z,7.05
2023-04-06T01:29:53.241Z,7.03
2023-04-06T01:32:38.595Z,7.13
2023-04-06T01:35:07.039Z,7.14
2023-04-06T01:37:38.118Z,7.05
2023-04-06T01:40:09.345Z,7.11
2023-04-06T01:42:45.263Z,7.11
2023-04-06T01:45:17.254Z,7.09
2023-04-06T01:47:45.941Z,7.11
2023-04-06T01:50:13.792Z,7.14
2023-04-06T01:52:45.846Z,7.14
2023-04-06T01:55:13.413Z,7.13
2023-04-06T01:58:00.717Z,7.07
2023-04-06T02:00:35.074Z,7.08
2023-04-06T02:03:03.030Z,7.11
2023-04-06T02:05:35.099Z,7.16
2023-04-06T02:08:02.705Z,7.17
2023-04-06T02:10:36.352Z,7.21
2023-04-06T02:13:12.254Z,7.14
2023-04-06T02:15:44.587Z,7.16
2023-04-06T02:18:12.243Z,7.18
2023-04-06T02:20:39.536Z,7.12
2023-04-06T02:23:06.791Z,7.09
2023-04-06T02:25:34.641Z,7.15
2023-04-06T02:28:02.002Z,7.09
2023-04-06T02:30:30.686Z,7.16
2023-04-06T02:32:59.200Z,7.21
2023-04-06T02:35:26.945Z,7.17
2023-04-06T02:37:55.944Z,7.17
2023-04-06T02:40:23.667Z,7.22
2023-04-06T02:42:50.980Z,7.25
2023-04-06T02:45:24.575Z,7.24
2023-04-06T02:47:51.617Z,7.21
2023-04-06T02:50:18.812Z,7.22
2023-04-06T02:52:55.015Z,7.31
2023-04-06T02:55:24.851Z,7.25
2023-04-06T02:57:52.505Z,7.29
2023-04-06T03:00:23.750Z,7.28
2023-04-06T03:02:51.376Z,7.29
2023-04-06T03:05:19.983Z,7.24
2023-04-06T03:07:48.498Z,7.25
2023-04-06T03:10:24.326Z,7.22
2023-04-06T03:12:51.424Z,7.25
2023-04-06T03:15:24.641Z,7.33
2023-04-06T03:18:00.125Z,7.21
2023-04-06T03:20:41.325Z,7.22
2023-04-06T03:23:11.508Z,7.25
2023-04-06T03:25:47.466Z,7.28
2023-04-06T03:28:22.670Z,7.25
2023-04-06T03:30:59.592Z,7.26
2023-04-06T03:33:45.593Z,7.23
2023-04-06T03:36:36.011Z,7.27
2023-04-06T03:39:06.729Z,7.29
2023-04-06T03:41:40.202Z,7.43
2023-04-06T03:44:21.942Z,7.41
2023-04-06T03:46:53.403Z,7.44
2023-04-06T03:49:22.536Z,7.48
2023-04-06T03:51:54.262Z,7.51
2023-04-06T03:54:47.489Z,7.51
2023-04-06T03:57:14.488Z,7.49
2023-04-06T03:59:46.689Z,7.47
2023-04-06T04:02:17.392Z,7.53
2023-04-06T04:04:45.544Z,7.58
2023-04-06T04:07:14.599Z,7.62
2023-04-06T04:09:44.977Z,7.75
2023-04-06T04:12:12.375Z,7.66
2023-04-06T04:14:42.317Z,7.77
2023-04-06T04:17:10.263Z,7.82
2023-04-06T04:19:38.550Z,7.93
2023-04-06T04:22:10.412Z,7.98
2023-04-06T04:24:41.144Z,7.94
2023-04-06T04:27:10.439Z,8.03
2023-04-06T04:29:40.690Z,8.13
2023-04-06T04:32:12.212Z,8.07
2023-04-06T04:34:42.407Z,8.10
2023-04-06T04:37:16.736Z,8.20
2023-04-06T04:39:55.544Z,8.35
2023-04-06T04:42:23.935Z,8.30
2023-04-06T04:44:54.501Z,8.40
2023-04-06T04:47:33.777Z,8.51
2023-04-06T04:50:01.823Z,8.61
2023-04-06T04:52:30.207Z,8.52
2023-04-06T04:55:12.139Z,8.70
2023-04-06T04:57:39.734Z,8.83
2023-04-06T05:00:08.392Z,8.86
2023-04-06T05:02:38.030Z,8.89
2023-04-06T05:05:19.574Z,9.13
2023-04-06T05:07:47.160Z,9.34
2023-04-06T05:10:25.741Z,9.61
2023-04-06T05:12:57.806Z,9.69
2023-04-06T05:15:27.138Z,9.66
2023-04-06T05:17:59.863Z,9.53
2023-04-06T05:20:32.740Z,9.49
2023-04-06T05:23:04.000Z,9.71
2023-04-06T05:25:31.891Z,10.00
2023-04-06T05:28:06.520Z,9.92
2023-04-06T05:30:39.471Z,9.92
2023-04-06T05:33:08.104Z,9.69
2023-04-06T05:35:53.850Z,9.72
2023-04-06T05:38:21.669Z,9.68
2023-04-06T05:40:50.035Z,9.79
2023-04-06T05:43:23.041Z,9.67
2023-04-06T05:45:55.134Z,9.99
2023-04-06T05:48:25.760Z,10.11
2023-04-06T05:50:53.652Z,10.21
2023-04-06T05:53:32.613Z,10.44
2023-04-06T05:56:06.137Z,10.62
2023-04-06T05:58:34.100Z,10.73
2023-04-06T06:01:02.798Z,11.02
2023-04-06T06:03:39.511Z,11.23
2023-04-06T06:06:08.050Z,11.35
2023-04-06T06:09:12.226Z,11.35
2023-04-06T06:11:47.855Z,11.18
2023-04-06T06:14:18.840Z,11.17
2023-04-06T06:16:48.043Z,11.07
2023-04-06T06:19:17.480Z,10.98
2023-04-06T06:21:50.063Z,10.87
2023-04-06T06:24:17.749Z,10.69
2023-04-06T06:26:46.337Z,10.64
2023-04-06T06:29:16.497Z,10.63
2023-04-06T06:31:45.593Z,10.68
2023-04-06T06:34:14.296Z,10.26
2023-04-06T06:36:46.403Z,10.38
2023-04-06T06:39:16.938Z,10.33
2023-04-06T06:41:45.787Z,10.50
2023-04-06T06:44:14.339Z,10.43
2023-04-06T06:46:42.177Z,10.59
2023-04-06T06:49:13.070Z,10.81
2023-04-06T06:51:41.222Z,11.08
2023-04-06T06:54:09.762Z,11.20
2023-04-06T06:56:39.765Z,11.39
2023-04-06T06:59:08.643Z,11.46
2023-04-06T07:01:38.467Z,11.34
2023-04-06T07:04:07.740Z,11.37
2023-04-06T07:06:40.088Z,11.79
2023-04-06T07:09:09.696Z,12.25
2023-04-06T07:11:38.572Z,12.31
2023-04-06T07:14:09.763Z,12.26
2023-04-06T07:16:44.191Z,12.42
2023-04-06T07:19:13.586Z,12.34
2023-04-06T07:21:43.567Z,12.20
2023-04-06T07:24:15.920Z,12.44
2023-04-06T07:26:45.790Z,12.61
2023-04-06T07:29:14.951Z,13.11
2023-04-06T07:31:43.358Z,13.44
2023-04-06T07:34:11.387Z,13.64
2023-04-06T07:36:41.516Z,13.57
2023-04-06T07:39:10.217Z,13.57
2023-04-06T07:41:39.260Z,13.30
2023-04-06T07:44:08.264Z,13.41
2023-04-06T07:46:38.350Z,13.32
2023-04-06T07:49:07.818Z,13.50
2023-04-06T07:51:41.564Z,13.79
2023-04-06T07:54:09.527Z,13.69
2023-04-06T07:56:37.469Z,13.89
2023-04-06T07:59:06.121Z,14.07
2023-04-06T08:01:33.468Z,13.98
2023-04-06T08:04:04.298Z,14.27
2023-04-06T08:06:33.335Z,14.42
2023-04-06T08:09:01.793Z,14.73
2023-04-06T08:11:34.719Z,14.88
2023-04-06T08:14:03.404Z,14.97
2023-04-06T08:16:32.240Z,15.02
2023-04-06T08:19:01.117Z,15.17
2023-04-06T08:21:30.941Z,14.82
2023-04-06T08:23:59.658Z,14.70
2023-04-06T08:26:27.528Z,14.43
2023-04-06T08:28:55.572Z,14.42
2023-04-06T08:31:23.038Z,14.29
2023-04-06T08:33:51.402Z,14.16
2023-04-06T08:36:24.174Z,14.41
2023-04-06T08:38:53.046Z,14.67
2023-04-06T08:41:22.526Z,14.38
2023-04-06T08:43:57.788Z,14.06
2023-04-06T08:46:33.606Z,14.45
2023-04-06T08:49:04.397Z,14.57
2023-04-06T08:51:35.060Z,14.75
2023-04-06T08:54:03.821Z,14.87
2023-04-06T08:56:31.423Z,14.60
2023-04-06T08:59:01.559Z,14.88
2023-04-06T09:01:31.153Z,14.73
2023-04-06T09:04:02.417Z,14.98
2023-04-06T09:06:33.135Z,15.46
2023-04-06T09:09:01.811Z,15.54
2023-04-06T09:11:31.321Z,15.52
2023-04-06T09:14:02.367Z,15.81
2023-04-06T09:16:45.146Z,15.62
2023-04-06T09:19:14.264Z,15.20
2023-04-06T09:21:43.952Z,15.09
2023-04-06T09:24:12.680Z,15.11
2023-04-06T09:26:49.005Z,14.95
2023-04-06T09:29:28.253Z,14.81
2023-04-06T09:32:08.562Z,14.45
2023-04-06T09:34:36.428Z,14.35
2023-04-06T09:37:18.419Z,14.16
2023-04-06T09:39:47.853Z,13.89
2023-04-06T09:42:27.221Z,13.64
2023-04-06T09:44:56.609Z,13.66
2023-04-06T09:47:26.479Z,13.58
2023-04-06T09:50:01.953Z,13.17
2023-04-06T09:52:35.988Z,13.31
2023-04-06T09:55:09.538Z,13.33
2023-04-06T09:58:03.114Z,13.27
2023-04-06T10:00:34.355Z,13.21
2023-04-06T10:03:21.586Z,13.12
2023-04-06T10:06:00.267Z,13.10
2023-04-06T10:08:32.763Z,13.36
2023-04-06T10:11:02.524Z,13.43
2023-04-06T10:13:30.291Z,13.48
2023-04-06T10:16:04.621Z,13.39
2023-04-06T10:18:32.486Z,13.35
2023-04-06T10:21:10.568Z,13.24
2023-04-06T10:24:00.265Z,13.19
2023-04-06T10:26:28.158Z,13.03
2023-04-06T10:28:56.896Z,13.07
2023-04-06T10:31:28.551Z,13.08
2023-04-06T10:33:58.132Z,12.96
2023-04-06T10:36:30.930Z,12.98
2023-04-06T10:39:03.092Z,12.93
2023-04-06T10:41:42.466Z,12.97
2023-04-06T10:44:25.837Z,13.06
2023-04-06T10:47:05.116Z,13.12
2023-04-06T10:49:32.579Z,13.26
2023-04-06T10:52:00.365Z,13.35
2023-04-06T10:54:30.151Z,13.39
2023-04-06T10:56:58.935Z,13.46
2023-04-06T10:59:27.297Z,13.36
2023-04-06T11:01:58.699Z,13.38
2023-04-06T11:04:28.171Z,13.30
2023-04-06T11:06:56.890Z,13.31
2023-04-06T11:09:27.066Z,13.26
2023-04-06T11:11:55.355Z,13.33
2023-04-06T11:14:23.418Z,13.36
2023-04-06T11:16:52.679Z,13.44
2023-04-06T11:19:24.382Z,13.69
2023-04-06T11:21:52.662Z,13.86
2023-04-06T11:24:26.477Z,13.97
2023-04-06T11:27:00.423Z,14.09
2023-04-06T11:32:26.180Z,15.10
2023-04-06T11:34:54.664Z,15.54
2023-04-06T11:37:22.480Z,15.87
2023-04-06T11:39:52.715Z,16.02
2023-04-06T11:42:28.493Z,16.12
2023-04-06T11:44:58.610Z,16.20
2023-04-06T11:47:34.110Z,16.24
2023-04-06T11:50:13.994Z,16.19
2023-04-06T11:52:43.137Z,16.03
2023-04-06T11:55:19.983Z,16.02
2023-04-06T11:57:48.354Z,15.98
2023-04-06T12:00:17.209Z,16.02
2023-04-06T12:02:49.962Z,16.02
2023-04-06T12:05:18.892Z,16.07
2023-04-06T12:07:47.537Z,16.07
2023-04-06T12:10:16.448Z,15.90
2023-04-06T12:12:45.187Z,15.68
2023-04-06T12:15:13.219Z,15.45
2023-04-06T12:17:42.247Z,15.28
2023-04-06T12:20:24.644Z,15.16
2023-04-06T12:22:54.175Z,15.12
2023-04-06T12:25:22.904Z,15.09
2023-04-06T12:27:51.918Z,14.96
2023-04-06T12:30:20.744Z,14.93
2023-04-06T12:32:51.299Z,15.01
2023-04-06T12:35:19.637Z,15.28
2023-04-06T12:37:47.665Z,15.68
2023-04-06T12:40:17.428Z,16.07
2023-04-06T12:42:46.874Z,16.37
2023-04-06T12:45:15.076Z,16.57
2023-04-06T12:47:42.853Z,16.75
2023-04-06T12:50:13.805Z,16.74
2023-04-06T12:52:41.944Z,16.96
2023-04-06T12:55:10.309Z,17.00
2023-04-06T12:57:39.215Z,17.11
2023-04-06T13:00:09.506Z,17.17
2023-04-06T13:02:38.536Z,17.31
2023-04-06T13:05:06.973Z,17.35
2023-04-06T13:07:35.402Z,17.32
2023-04-06T13:10:03.759Z,17.53
2023-04-06T13:12:34.432Z,17.64
2023-04-06T13:15:02.926Z,17.73
2023-04-06T13:17:34.583Z,17.66
2023-04-06T13:20:03.043Z,17.58
2023-04-06T13:22:36.533Z,17.22
2023-04-06T13:25:05.629Z,17.05
2023-04-06T13:27:36.089Z,16.71
2023-04-06T13:30:06.799Z,16.34
2023-04-06T13:32:36.260Z,16.01
2023-04-06T13:35:09.028Z,15.76
2023-04-06T13:37:37.564Z,15.63
2023-04-06T13:40:09.533Z,15.56
2023-04-06T13:42:39.798Z,15.43
2023-04-06T13:45:08.485Z,15.31
2023-04-06T13:47:36.658Z,15.24
2023-04-06T13:50:08.372Z,15.16
2023-04-06T13:52:37.875Z,15.02
2023-04-06T13:55:05.998Z,15.16
2023-04-06T13:57:33.854Z,15.24
2023-04-06T14:00:03.003Z,15.07
2023-04-06T14:02:35.398Z,15.17
2023-04-06T14:05:05.351Z,15.29
2023-04-06T14:07:33.314Z,15.38
2023-04-06T14:10:01.902Z,15.48
2023-04-06T14:12:30.738Z,15.71
2023-04-06T14:15:00.131Z,15.86
2023-04-06T14:17:27.613Z,16.18
2023-04-06T14:19:55.796Z,16.35
2023-04-06T14:22:23.664Z,16.63
2023-04-06T14:24:52.097Z,16.85
2023-04-06T14:27:19.950Z,17.00
2023-04-06T14:29:48.104Z,16.86
2023-04-06T14:32:18.858Z,16.77
2023-04-06T14:34:48.027Z,16.50
2023-04-06T14:37:16.448Z,16.01
2023-04-06T14:39:44.347Z,15.62
2023-04-06T14:42:11.848Z,15.35
2023-04-06T14:44:44.744Z,14.95
2023-04-06T14:47:17.363Z,14.59
2023-04-06T14:49:45.756Z,14.30
2023-04-06T14:52:13.556Z,14.06
2023-04-06T14:54:43.110Z,13.89
2023-04-06T14:57:12.981Z,13.69
2023-04-06T14:59:41.459Z,13.59
2023-04-06T15:02:13.385Z,13.50
2023-04-06T15:04:41.875Z,13.51
2023-04-06T15:07:11.625Z,13.42
2023-04-06T15:09:42.649Z,13.34
2023-04-06T15:12:12.696Z,13.33
2023-04-06T15:14:41.877Z,13.21
2023-04-06T15:17:10.297Z,13.16
2023-04-06T15:19:38.563Z,13.23
2023-04-06T15:22:07.020Z,13.21
2023-04-06T15:24:35.887Z,13.21
2023-04-06T15:27:03.789Z,13.18
2023-04-06T15:29:32.755Z,13.17
2023-04-06T15:32:02.512Z,13.23
2023-04-06T15:34:34.768Z,13.10
2023-04-06T15:37:03.534Z,13.17
2023-04-06T15:39:31.359Z,13.11
2023-04-06T15:41:59.518Z,13.10
2023-04-06T15:44:27.987Z,12.99
2023-04-06T15:46:55.564Z,12.90
2023-04-06T15:49:23.547Z,12.82
2023-04-06T15:51:52.835Z,12.73
2023-04-06T15:54:21.871Z,12.67
2023-04-06T15:56:51.636Z,12.69
2023-04-06T15:59:20.380Z,12.69
2023-04-06T16:01:48.145Z,12.68
2023-04-06T16:04:15.780Z,12.64
2023-04-06T16:06:43.742Z,12.59
2023-04-06T16:09:12.138Z,12.56
2023-04-06T16:11:39.634Z,12.55
2023-04-06T16:14:07.888Z,12.51
2023-04-06T16:16:36.150Z,12.39
2023-04-06T16:19:03.979Z,12.39
2023-04-06T16:21:32.339Z,12.32
2023-04-06T16:24:00.207Z,12.29
2023-04-06T16:26:28.297Z,12.22
2023-04-06T16:28:56.090Z,12.11
2023-04-06T16:31:25.641Z,12.11
2023-04-06T16:33:54.676Z,12.07
2023-04-06T16:36:34.823Z,12.02
2023-04-06T16:39:02.714Z,11.97
2023-04-06T16:41:30.374Z,11.96
2023-04-06T16:43:58.357Z,11.91
2023-04-06T16:46:32.319Z,11.85
2023-04-06T16:49:00.401Z,11.75
2023-04-06T16:51:28.493Z,11.72
2023-04-06T16:53:56.053Z,11.62
2023-04-06T16:56:23.392Z,11.61
2023-04-06T16:58:51.375Z,11.56
2023-04-06T17:01:23.332Z,11.55
2023-04-06T17:03:51.427Z,11.53
2023-04-06T17:06:19.333Z,11.50
2023-04-06T17:08:47.784Z,11.45
2023-04-06T17:11:21.760Z,11.44
2023-04-06T17:13:52.792Z,11.40
2023-04-06T17:16:21.452Z,11.41
2023-04-06T17:18:48.658Z,11.40
2023-04-06T17:21:17.407Z,11.38
2023-04-06T17:23:45.047Z,11.34
2023-04-06T17:26:12.376Z,11.32
2023-04-06T17:28:39.898Z,11.33
2023-04-06T17:31:11.799Z,11.29
2023-04-06T17:33:40.298Z,11.27
2023-04-06T17:36:11.115Z,11.24
2023-04-06T17:38:43.625Z,11.21
2023-04-06T17:41:12.866Z,11.15
2023-04-06T17:43:40.796Z,11.15
2023-04-06T17:46:08.161Z,11.11
2023-04-06T17:48:35.487Z,11.10
2023-04-06T17:51:03.270Z,11.09
2023-04-06T17:53:32.825Z,11.06
2023-04-06T17:56:06.499Z,11.05
2023-04-06T17:58:34.121Z,11.04
2023-04-06T18:01:07.399Z,11.00
2023-04-06T18:03:35.335Z,10.98
2023-04-06T18:06:16.442Z,10.92
2023-04-06T18:08:43.987Z,10.91
2023-04-06T18:11:22.033Z,10.90
2023-04-06T18:13:49.773Z,10.88
2023-04-06T18:16:21.758Z,10.83
2023-04-06T18:18:49.576Z,10.81
2023-04-06T18:21:19.666Z,10.80
2023-04-06T18:23:47.057Z,10.82
2023-04-06T18:26:19.330Z,10.80
2023-04-06T18:28:47.251Z,10.78
2023-04-06T18:31:15.055Z,10.79
2023-04-06T18:33:42.634Z,10.77
2023-04-06T18:36:11.621Z,10.77
2023-04-06T18:38:43.704Z,10.77
2023-04-06T18:41:13.148Z,10.75
2023-04-06T18:43:41.338Z,10.74
2023-04-06T18:46:13.760Z,10.76
2023-04-06T18:48:42.587Z,10.78
2023-04-06T18:51:09.917Z,10.80
2023-04-06T18:53:39.706Z,10.80
2023-04-06T18:56:18.761Z,10.78
2023-04-06T18:58:48.670Z,10.71
2023-04-06T19:01:27.857Z,10.47
2023-04-06T19:03:57.110Z,10.45
2023-04-06T19:06:27.460Z,10.42
2023-04-06T19:08:55.270Z,10.26
2023-04-06T19:11:25.474Z,10.20
2023-04-06T19:13:57.905Z,10.14
2023-04-06T19:16:29.489Z,10.02
2023-04-06T19:18:57.052Z,10.03
2023-04-06T19:21:26.466Z,9.97
2023-04-06T19:23:55.622Z,9.86
2023-04-06T19:26:24.466Z,9.89
2023-04-06T19:28:52.302Z,9.73
2023-04-06T19:31:19.762Z,9.71
2023-04-06T19:33:47.819Z,9.64
2023-04-06T19:36:16.381Z,9.60
2023-04-06T19:38:43.931Z,9.60
2023-04-06T19:41:11.423Z,9.61
2023-04-06T19:43:38.953Z,9.48
2023-04-06T19:46:06.535Z,9.43
2023-04-06T19:48:34.188Z,9.49
2023-04-06T19:51:01.653Z,9.48
2023-04-06T19:53:29.498Z,9.46
2023-04-06T19:55:56.791Z,9.51
2023-04-06T19:58:24.084Z,9.44
2023-04-06T20:00:51.552Z,9.40
2023-04-06T20:03:19.205Z,9.42
2023-04-06T20:05:47.150Z,9.41
2023-04-06T20:08:14.756Z,9.40
2023-04-06T20:10:42.180Z,9.36
2023-04-06T20:13:09.474Z,9.37
2023-04-06T20:15:37.138Z,9.17
2023-04-06T20:18:04.438Z,9.16
2023-04-06T20:20:31.645Z,8.96
2023-04-06T20:22:59.071Z,8.93
2023-04-06T20:25:27.010Z,8.89
2023-04-06T20:27:54.394Z,8.79
2023-04-06T20:30:21.749Z,8.77
2023-04-06T20:32:49.114Z,8.70
2023-04-06T20:35:16.743Z,8.64
2023-04-06T20:37:44.148Z,8.40
2023-04-06T20:40:13.075Z,8.43
2023-04-06T20:42:40.828Z,8.47
2023-04-06T20:45:09.025Z,8.42
2023-04-06T20:47:36.554Z,8.33
2023-04-06T20:50:04.188Z,8.31
2023-04-06T20:52:31.518Z,8.32
2023-04-06T20:55:01.479Z,8.31
2023-04-06T20:57:28.951Z,8.19
2023-04-06T20:59:56.401Z,8.27
2023-04-06T21:02:23.962Z,8.29
2023-04-06T21:04:51.501Z,8.19
2023-04-06T21:07:18.967Z,8.21
2023-04-06T21:09:46.608Z,8.26
2023-04-06T21:12:13.603Z,8.26
2023-04-06T21:14:41.542Z,8.28
2023-04-06T21:17:09.193Z,8.18
2023-04-06T21:19:36.894Z,8.16
2023-04-06T21:22:04.153Z,8.18
2023-04-06T21:24:31.226Z,8.13
2023-04-06T21:26:58.683Z,8.09
2023-04-06T21:29:26.155Z,8.10
2023-04-06T21:31:55.848Z,8.07
2023-04-06T21:34:25.384Z,7.96
2023-04-06T21:36:53.155Z,7.92
2023-04-06T21:39:20.652Z,7.78
2023-04-06T21:41:47.796Z,7.75
2023-04-06T21:44:15.138Z,7.63
2023-04-06T21:46:42.603Z,7.56
2023-04-06T21:49:09.909Z,7.33
2023-04-06T21:51:37.264Z,7.32
2023-04-06T21:54:04.513Z,7.29
2023-04-06T21:56:31.914Z,7.25
2023-04-06T21:58:59.168Z,7.28
2023-04-06T22:01:27.906Z,7.18
2023-04-06T22:03:55.871Z,7.24
2023-04-06T22:06:25.961Z,7.19
2023-04-06T22:08:59.731Z,7.15
2023-04-06T22:11:26.894Z,7.22
2023-04-06T22:13:54.364Z,7.13
2023-04-06T22:16:21.759Z,7.13
2023-04-06T22:18:48.964Z,7.02
2023-04-06T22:21:16.390Z,7.03
2023-04-06T22:23:43.536Z,7.07
2023-04-06T22:26:11.950Z,6.98
2023-04-06T22:28:40.621Z,6.94
2023-04-06T22:31:07.776Z,6.90
2023-04-06T22:33:35.199Z,6.89
2023-04-06T22:36:02.801Z,6.85
2023-04-06T22:38:30.119Z,6.77
2023-04-06T22:40:57.376Z,6.83
2023-04-06T22:43:24.707Z,6.80
2023-04-06T22:45:52.156Z,6.82
2023-04-06T22:48:19.817Z,6.85
2023-04-06T22:50:47.213Z,6.82
2023-04-06T22:53:14.577Z,6.85
2023-04-06T22:55:41.918Z,6.87
2023-04-06T22:58:09.394Z,6.91
2023-04-06T23:00:36.693Z,6.95
2023-04-06T23:03:04.055Z,6.91
2023-04-06T23:05:33.019Z,6.94
2023-04-06T23:08:00.287Z,6.95
2023-04-06T23:10:27.810Z,6.90
2023-04-06T23:12:55.269Z,6.89
2023-04-06T23:15:22.906Z,6.91
2023-04-06T23:17:50.729Z,6.93
2023-04-06T23:20:18.234Z,6.92
2023-04-06T23:22:45.915Z,6.90
2023-04-06T23:25:13.048Z,6.87
2023-04-06T23:27:40.577Z,6.80
2023-04-06T23:30:08.539Z,6.73
2023-04-06T23:32:35.974Z,6.77
2023-04-06T23:35:03.784Z,6.76
2023-04-06T23:37:31.342Z,6.73
2023-04-06T23:39:58.592Z,6.68
2023-04-06T23:42:28.899Z,6.66
2023-04-06T23:44:56.749Z,6.42
2023-04-06T23:47:23.996Z,6.48
2023-04-06T23:49:52.824Z,6.43
2023-04-06T23:52:19.970Z,6.33
2023-04-06T23:54:47.269Z,6.29
2023-04-06T23:57:14.469Z,6.27
2023-04-06T23:59:41.775Z,6.30
